createdAt,value
2019-05-13T00:04:27.998Z,1.30
2019-05-13T00:09:51.494Z,1.40
2019-05-13T00:15:15.925Z,1.20
2019-05-13T00:20:39.623Z,1.40
2019-05-13T00:26:03.757Z,1.70
2019-05-13T00:31:33.535Z,1.50
2019-05-13T00:37:08.944Z,1.50
2019-05-13T00:42:24.602Z,1.70
2019-05-13T00:47:47.971Z,1.30
2019-05-13T00:53:13.325Z,1.50
2019-05-13T00:58:37.977Z,1.60
2019-05-13T01:04:04.090Z,1.10
2019-05-13T01:09:27.782Z,1.20
2019-05-13T01:14:53.455Z,1.30
2019-05-13T01:20:17.069Z,1.20
2019-05-13T01:25:40.497Z,1.73
2019-05-13T01:31:04.967Z,1.50
2019-05-13T01:36:28.036Z,1.87
2019-05-13T01:41:51.047Z,3.40
2019-05-13T01:47:15.134Z,2.30
2019-05-13T01:52:38.515Z,2.23
2019-05-13T01:58:04.151Z,2.23
2019-05-13T02:03:26.763Z,2.23
2019-05-13T02:08:51.036Z,1.83
2019-05-13T02:14:16.358Z,2.33
2019-05-13T02:19:44.083Z,1.70
2019-05-13T02:25:09.765Z,1.70
2019-05-13T02:30:34.952Z,1.77
2019-05-13T02:35:59.034Z,2.07
2019-05-13T02:41:22.922Z,2.40
2019-05-13T02:46:46.254Z,1.73
2019-05-13T02:52:12.990Z,1.50
2019-05-13T02:57:34.665Z,1.50
2019-05-13T03:02:58.675Z,1.60
2019-05-13T03:08:35.277Z,1.03
2019-05-13T03:13:47.780Z,1.80
2019-05-13T03:19:13.565Z,1.83
2019-05-13T03:24:37.192Z,1.60
2019-05-13T03:30:04.219Z,1.47
2019-05-13T03:35:27.783Z,1.50
2019-05-13T03:40:52.708Z,1.60
2019-05-13T03:46:18.090Z,1.70
2019-05-13T03:51:42.859Z,1.80
2019-05-13T03:57:07.134Z,1.37
2019-05-13T04:02:32.590Z,1.70
2019-05-13T04:07:55.768Z,1.67
2019-05-13T04:13:23.004Z,1.80
2019-05-13T04:18:44.195Z,2.00
2019-05-13T04:24:07.621Z,1.80
2019-05-13T04:29:32.986Z,2.03
2019-05-13T04:34:57.139Z,1.90
2019-05-13T04:40:23.061Z,1.80
2019-05-13T04:45:47.443Z,1.93
2019-05-13T04:51:13.591Z,1.90
2019-05-13T04:56:35.849Z,2.00
2019-05-13T05:02:40.126Z,1.83
2019-05-13T05:08:27.991Z,1.83
2019-05-13T05:14:06.159Z,1.70
2019-05-13T05:20:03.627Z,1.90
2019-05-13T05:25:54.722Z,2.20
2019-05-13T05:31:35.456Z,2.40
2019-05-13T05:37:31.229Z,2.07
2019-05-13T05:42:56.629Z,2.47
2019-05-13T05:48:22.763Z,2.37
2019-05-13T05:53:51.670Z,2.33
2019-05-13T05:59:14.455Z,1.93
2019-05-13T06:04:38.015Z,2.27
2019-05-13T06:10:02.269Z,3.10
2019-05-13T06:15:26.197Z,2.43
2019-05-13T06:20:51.234Z,2.27
2019-05-13T06:26:17.216Z,2.73
2019-05-13T06:31:41.929Z,2.10
2019-05-13T06:37:06.234Z,2.43
2019-05-13T06:42:32.282Z,2.30
2019-05-13T06:47:54.696Z,1.93
2019-05-13T06:53:17.763Z,2.50
2019-05-13T06:58:41.744Z,2.37
2019-05-13T07:04:06.950Z,2.53
2019-05-13T07:09:32.338Z,2.90
2019-05-13T07:14:56.442Z,2.47
2019-05-13T07:20:22.598Z,1.47
2019-05-13T07:25:44.735Z,3.10
2019-05-13T07:31:11.577Z,1.90
2019-05-13T07:36:36.647Z,2.30
2019-05-13T07:42:05.060Z,2.93
2019-05-13T07:47:25.451Z,1.90
2019-05-13T07:53:06.826Z,2.40
2019-05-13T08:05:27.642Z,1.60
2019-05-13T08:11:03.111Z,2.60
2019-05-13T08:16:26.798Z,2.23
2019-05-13T08:21:51.382Z,2.07
2019-05-13T08:27:14.909Z,1.80
2019-05-13T08:32:49.111Z,2.07
2019-05-13T08:52:12.217Z,2.10
2019-05-13T09:11:41.955Z,1.83
2019-05-13T09:36:32.334Z,1.80
2019-05-13T09:49:27.853Z,1.67
2019-05-13T09:55:28.947Z,1.57
2019-05-13T10:07:50.368Z,1.90
2019-05-13T10:13:15.663Z,1.50
2019-05-13T10:18:41.711Z,1.87
2019-05-13T10:24:04.676Z,1.60
2019-05-13T10:29:28.679Z,1.40
2019-05-13T10:34:53.931Z,1.00
2019-05-13T10:40:17.522Z,1.87
2019-05-13T10:45:41.767Z,1.60
2019-05-13T10:51:05.595Z,1.40
2019-05-13T10:56:32.525Z,1.40
2019-05-13T11:01:54.480Z,1.53
2019-05-13T11:07:18.575Z,1.27
2019-05-13T11:12:42.757Z,1.00
2019-05-13T11:18:06.519Z,1.17
2019-05-13T11:23:44.390Z,1.10
2019-05-13T11:29:51.779Z,1.33
2019-05-13T11:35:14.283Z,1.63
2019-05-13T11:40:37.760Z,1.30
2019-05-13T11:46:02.415Z,1.30
2019-05-13T11:51:26.602Z,1.20
2019-05-13T11:57:00.823Z,1.00
2019-05-13T12:02:15.141Z,1.40
2019-05-13T12:07:38.825Z,1.30
2019-05-13T12:13:03.843Z,1.10
2019-05-13T12:18:27.423Z,1.33
2019-05-13T12:23:52.691Z,1.40
2019-05-13T12:29:19.226Z,1.20
2019-05-13T12:34:45.646Z,1.37
2019-05-13T12:40:06.516Z,1.80
2019-05-13T12:45:30.459Z,1.10
2019-05-13T12:50:54.392Z,1.20
2019-05-13T12:56:18.040Z,1.40
2019-05-13T13:01:42.211Z,1.30
2019-05-13T13:07:06.787Z,1.30
2019-05-13T13:12:36.098Z,1.80
2019-05-13T13:17:56.072Z,1.30
2019-05-13T13:23:23.141Z,1.00
2019-05-13T13:28:45.091Z,1.13
2019-05-13T13:34:13.602Z,1.00
2019-05-13T13:39:33.881Z,1.37
2019-05-13T13:44:57.915Z,1.20
2019-05-13T13:50:24.507Z,1.20
2019-05-13T13:55:46.680Z,1.17
2019-05-13T14:01:18.140Z,1.30
2019-05-13T14:12:02.174Z,1.13
2019-05-13T14:17:26.923Z,1.23
2019-05-13T14:22:54.486Z,0.90
2019-05-13T14:28:17.492Z,1.33
2019-05-13T14:33:42.484Z,0.90
2019-05-13T14:39:07.415Z,1.40
2019-05-13T14:44:32.507Z,1.40
2019-05-13T14:49:58.351Z,1.10
2019-05-13T14:55:22.716Z,1.30
2019-05-13T15:01:08.208Z,1.10
2019-05-13T15:06:13.845Z,0.90
2019-05-13T15:11:37.494Z,1.27
2019-05-13T15:17:06.860Z,1.07
2019-05-13T15:22:26.240Z,1.40
2019-05-13T15:27:52.547Z,1.20
2019-05-13T15:33:14.498Z,1.40
2019-05-13T15:38:38.561Z,1.03
2019-05-13T15:44:03.385Z,1.20
2019-05-13T15:49:27.088Z,1.20
2019-05-13T15:54:52.209Z,1.40
2019-05-13T16:00:15.824Z,1.60
2019-05-13T16:05:39.435Z,1.30
2019-05-13T16:11:03.069Z,1.03
2019-05-13T16:16:26.680Z,1.13
2019-05-13T16:21:51.827Z,1.70
2019-05-13T16:27:14.815Z,1.57
2019-05-13T16:32:38.156Z,1.53
2019-05-13T16:38:01.972Z,1.60
2019-05-13T16:43:25.675Z,1.67
2019-05-13T16:48:49.895Z,1.20
2019-05-13T16:54:13.559Z,1.43
2019-05-13T16:59:36.952Z,1.53
2019-05-13T17:05:01.453Z,1.60
2019-05-13T17:10:25.606Z,1.50
2019-05-13T17:15:49.284Z,1.73
2019-05-13T17:21:13.234Z,1.50
2019-05-13T17:26:37.247Z,1.83
2019-05-13T17:32:02.446Z,1.50
2019-05-13T17:37:26.734Z,1.40
2019-05-13T17:42:49.909Z,1.47
2019-05-13T17:48:26.009Z,1.50
2019-05-13T17:53:38.284Z,1.87
2019-05-13T17:59:02.311Z,1.80
2019-05-13T18:04:26.311Z,1.83
2019-05-13T18:09:51.987Z,1.40
2019-05-13T18:15:15.044Z,1.30
2019-05-13T18:20:38.948Z,1.20
2019-05-13T18:26:02.491Z,1.50
2019-05-13T18:31:26.424Z,1.20
2019-05-13T18:36:51.589Z,1.30
2019-05-13T18:42:15.271Z,1.13
2019-05-13T18:47:39.315Z,1.20
2019-05-13T18:53:03.068Z,1.20
2019-05-13T18:58:26.811Z,1.30
2019-05-13T19:03:50.738Z,1.13
2019-05-13T19:09:14.594Z,1.20
2019-05-13T19:14:38.050Z,1.07
2019-05-13T19:20:01.935Z,1.20
2019-05-13T19:25:25.517Z,1.10
2019-05-13T19:30:48.799Z,1.20
2019-05-13T19:36:12.444Z,1.37
2019-05-13T19:41:36.193Z,1.30
2019-05-13T19:47:02.138Z,1.03
2019-05-13T19:52:26.582Z,1.30
2019-05-13T19:57:51.743Z,1.13
2019-05-13T20:03:15.301Z,1.20
2019-05-13T20:08:38.715Z,1.10
2019-05-13T20:14:02.207Z,1.17
2019-05-13T20:19:26.224Z,1.30
2019-05-13T20:24:51.405Z,1.00
2019-05-13T20:30:14.247Z,1.07
2019-05-13T20:35:42.244Z,1.30
2019-05-13T20:41:06.300Z,1.20
2019-05-13T20:46:32.528Z,1.00
2019-05-13T20:51:57.586Z,1.00
2019-05-13T20:57:22.189Z,1.30
2019-05-13T21:02:45.343Z,1.00
2019-05-13T21:08:08.536Z,1.20
2019-05-13T21:13:32.947Z,1.00
2019-05-13T21:18:56.508Z,1.70
2019-05-13T21:24:21.361Z,1.30
2019-05-13T21:29:45.579Z,1.10
2019-05-13T21:35:11.836Z,1.10
2019-05-13T21:40:46.952Z,0.80
2019-05-13T21:46:12.040Z,1.10
2019-05-13T21:51:35.935Z,1.13
2019-05-13T21:56:59.232Z,0.80
2019-05-13T22:02:23.390Z,1.10
2019-05-13T22:07:47.095Z,1.20
2019-05-13T22:13:11.854Z,0.90
2019-05-13T22:18:35.628Z,0.73
2019-05-13T22:23:59.602Z,1.20
2019-05-13T22:29:23.616Z,0.90
2019-05-13T22:34:47.280Z,1.13
2019-05-13T22:40:11.294Z,0.80
2019-05-13T22:45:35.192Z,1.03
2019-05-13T22:51:01.169Z,1.17
2019-05-13T22:56:24.131Z,0.90
2019-05-13T23:01:47.283Z,0.90
2019-05-13T23:07:11.747Z,1.00
2019-05-13T23:12:35.155Z,1.00
2019-05-13T23:17:59.113Z,1.27
2019-05-13T23:23:23.366Z,1.00
2019-05-13T23:28:47.227Z,0.87
2019-05-13T23:34:12.077Z,1.20
2019-05-13T23:39:35.847Z,1.00
2019-05-13T23:44:59.895Z,1.33
2019-05-13T23:50:23.843Z,1.10
2019-05-13T23:55:47.327Z,1.27
